sensor_id;sensor_type;location;lat;lon;timestamp;temperature;humidity
39019;DHT22;24786;51.984;5.872;2023-08-01T00:01:23;16.70;99.90
39019;DHT22;24786;51.984;5.872;2023-08-01T00:03:49;16.80;99.90
39019;DHT22;24786;51.984;5.872;2023-08-01T00:06:14;16.70;99.90
39019;DHT22;24786;51.984;5.872;2023-08-01T00:08:40;16.80;99.90
39019;DHT22;24786;51.984;5.872;2023-08-01T00:11:05;16.70;99.90
39019;DHT22;24786;51.984;5.872;2023-08-01T00:13:31;16.70;99.90
39019;DHT22;24786;51.984;5.872;2023-08-01T00:15:56;16.70;99.90
39019;DHT22;24786;51.984;5.872;2023-08-01T00:18:22;16.80;99.90
39019;DHT22;24786;51.984;5.872;2023-08-01T00:20:47;16.80;99.90
39019;DHT22;24786;51.984;5.872;2023-08-01T00:23:13;16.70;99.90
39019;DHT22;24786;51.984;5.872;2023-08-01T00:25:38;16.70;99.90
39019;DHT22;24786;51.984;5.872;2023-08-01T00:28:04;16.70;99.90
39019;DHT22;24786;51.984;5.872;2023-08-01T00:30:29;16.70;99.90
39019;DHT22;24786;51.984;5.872;2023-08-01T00:32:55;16.60;99.90
39019;DHT22;24786;51.984;5.872;2023-08-01T00:35:20;16.60;99.90
39019;DHT22;24786;51.984;5.872;2023-08-01T00:37:46;16.60;99.90
39019;DHT22;24786;51.984;5.872;2023-08-01T00:40:11;16.50;99.90
39019;DHT22;24786;51.984;5.872;2023-08-01T00:42:37;16.50;99.90
39019;DHT22;24786;51.984;5.872;2023-08-01T00:45:03;16.50;99.90
39019;DHT22;24786;51.984;5.872;2023-08-01T00:47:29;16.40;99.90
39019;DHT22;24786;51.984;5.872;2023-08-01T00:49:54;16.30;99.90
39019;DHT22;24786;51.984;5.872;2023-08-01T00:52:20;16.30;99.90
39019;DHT22;24786;51.984;5.872;2023-08-01T00:54:46;16.40;99.90
39019;DHT22;24786;51.984;5.872;2023-08-01T00:57:11;16.40;99.90
39019;DHT22;24786;51.984;5.872;2023-08-01T00:59:37;16.40;99.90
39019;DHT22;24786;51.984;5.872;2023-08-01T01:02:02;16.30;99.90
39019;DHT22;24786;51.984;5.872;2023-08-01T01:04:28;16.40;99.90
39019;DHT22;24786;51.984;5.872;2023-08-01T01:06:57;16.30;99.90
39019;DHT22;24786;51.984;5.872;2023-08-01T01:09:27;16.30;99.90
39019;DHT22;24786;51.984;5.872;2023-08-01T01:11:53;16.30;99.90
39019;DHT22;24786;51.984;5.872;2023-08-01T01:14:18;16.30;99.90
39019;DHT22;24786;51.984;5.872;2023-08-01T01:16:44;16.40;99.90
39019;DHT22;24786;51.984;5.872;2023-08-01T01:19:09;16.30;99.90
39019;DHT22;24786;51.984;5.872;2023-08-01T01:21:35;16.30;99.90
39019;DHT22;24786;51.984;5.872;2023-08-01T01:24:02;16.30;99.90
39019;DHT22;24786;51.984;5.872;2023-08-01T01:26:28;16.30;99.90
39019;DHT22;24786;51.984;5.872;2023-08-01T01:28:53;16.30;99.90
39019;DHT22;24786;51.984;5.872;2023-08-01T01:31:19;16.20;99.90
39019;DHT22;24786;51.984;5.872;2023-08-01T01:33:45;16.30;99.90
39019;DHT22;24786;51.984;5.872;2023-08-01T01:36:11;16.20;99.90
39019;DHT22;24786;51.984;5.872;2023-08-01T01:38:36;16.20;99.90
39019;DHT22;24786;51.984;5.872;2023-08-01T01:41:02;16.20;99.90
39019;DHT22;24786;51.984;5.872;2023-08-01T01:43:27;16.20;99.90
39019;DHT22;24786;51.984;5.872;2023-08-01T01:45:53;16.20;99.90
39019;DHT22;24786;51.984;5.872;2023-08-01T01:48:18;16.20;99.90
39019;DHT22;24786;51.984;5.872;2023-08-01T01:50:44;16.20;99.90
39019;DHT22;24786;51.984;5.872;2023-08-01T01:53:09;16.20;99.90
39019;DHT22;24786;51.984;5.872;2023-08-01T01:55:35;16.10;99.90
39019;DHT22;24786;51.984;5.872;2023-08-01T01:58:00;16.20;99.90
39019;DHT22;24786;51.984;5.872;2023-08-01T02:00:26;16.20;99.90
39019;DHT22;24786;51.984;5.872;2023-08-01T02:02:51;16.10;99.90
39019;DHT22;24786;51.984;5.872;2023-08-01T02:05:17;16.10;99.90
39019;DHT22;24786;51.984;5.872;2023-08-01T02:07:42;16.00;99.90
39019;DHT22;24786;51.984;5.872;2023-08-01T02:10:08;16.10;99.90
39019;DHT22;24786;51.984;5.872;2023-08-01T02:12:33;16.00;99.90
39019;DHT22;24786;51.984;5.872;2023-08-01T02:15:01;16.00;99.90
39019;DHT22;24786;51.984;5.872;2023-08-01T02:17:26;16.00;99.90
39019;DHT22;24786;51.984;5.872;2023-08-01T02:19:52;16.00;99.90
39019;DHT22;24786;51.984;5.872;2023-08-01T02:22:17;15.90;99.90
39019;DHT22;24786;51.984;5.872;2023-08-01T02:24:43;15.90;99.90
39019;DHT22;24786;51.984;5.872;2023-08-01T02:27:08;15.90;99.90
39019;DHT22;24786;51.984;5.872;2023-08-01T02:29:34;15.90;99.90
39019;DHT22;24786;51.984;5.872;2023-08-01T02:31:59;15.90;99.90
39019;DHT22;24786;51.984;5.872;2023-08-01T02:34:25;15.90;99.90
39019;DHT22;24786;51.984;5.872;2023-08-01T02:36:50;15.80;99.90
39019;DHT22;24786;51.984;5.872;2023-08-01T02:39:15;15.80;99.90
39019;DHT22;24786;51.984;5.872;2023-08-01T02:41:41;15.80;99.90
39019;DHT22;24786;51.984;5.872;2023-08-01T02:44:06;15.80;99.90
39019;DHT22;24786;51.984;5.872;2023-08-01T02:46:32;15.70;99.90
39019;DHT22;24786;51.984;5.872;2023-08-01T02:48:57;15.90;99.90
39019;DHT22;24786;51.984;5.872;2023-08-01T02:51:23;15.70;99.90
39019;DHT22;24786;51.984;5.872;2023-08-01T02:53:48;15.70;99.90
39019;DHT22;24786;51.984;5.872;2023-08-01T02:56:14;15.70;99.90
39019;DHT22;24786;51.984;5.872;2023-08-01T02:58:39;15.70;99.90
39019;DHT22;24786;51.984;5.872;2023-08-01T03:01:08;15.70;99.90
39019;DHT22;24786;51.984;5.872;2023-08-01T03:03:38;15.70;99.90
39019;DHT22;24786;51.984;5.872;2023-08-01T03:06:04;15.70;99.90
39019;DHT22;24786;51.984;5.872;2023-08-01T03:08:30;15.70;99.90
39019;DHT22;24786;51.984;5.872;2023-08-01T03:10:55;15.60;99.90
39019;DHT22;24786;51.984;5.872;2023-08-01T03:13:21;15.70;99.90
39019;DHT22;24786;51.984;5.872;2023-08-01T03:15:46;15.60;99.90
39019;DHT22;24786;51.984;5.872;2023-08-01T03:18:12;15.70;99.90
39019;DHT22;24786;51.984;5.872;2023-08-01T03:20:37;15.60;99.90
39019;DHT22;24786;51.984;5.872;2023-08-01T03:23:03;15.70;99.90
39019;DHT22;24786;51.984;5.872;2023-08-01T03:25:28;15.60;99.90
39019;DHT22;24786;51.984;5.872;2023-08-01T03:27:54;15.70;99.90
39019;DHT22;24786;51.984;5.872;2023-08-01T03:30:20;15.70;99.90
39019;DHT22;24786;51.984;5.872;2023-08-01T03:32:46;15.70;99.90
39019;DHT22;24786;51.984;5.872;2023-08-01T03:35:11;15.60;99.90
39019;DHT22;24786;51.984;5.872;2023-08-01T03:37:39;15.70;99.90
39019;DHT22;24786;51.984;5.872;2023-08-01T03:40:05;15.70;99.90
39019;DHT22;24786;51.984;5.872;2023-08-01T03:42:34;15.70;99.90
39019;DHT22;24786;51.984;5.872;2023-08-01T03:44:59;15.80;99.90
39019;DHT22;24786;51.984;5.872;2023-08-01T03:47:25;15.80;99.90
39019;DHT22;24786;51.984;5.872;2023-08-01T03:49:50;15.80;99.90
39019;DHT22;24786;51.984;5.872;2023-08-01T03:52:16;15.90;99.90
39019;DHT22;24786;51.984;5.872;2023-08-01T03:54:41;15.80;99.90
39019;DHT22;24786;51.984;5.872;2023-08-01T03:57:07;15.80;99.90
39019;DHT22;24786;51.984;5.872;2023-08-01T03:59:32;15.90;99.90
39019;DHT22;24786;51.984;5.872;2023-08-01T04:01:58;15.90;99.90
39019;DHT22;24786;51.984;5.872;2023-08-01T04:04:23;15.90;99.90
39019;DHT22;24786;51.984;5.872;2023-08-01T04:06:49;15.90;99.90
39019;DHT22;24786;51.984;5.872;2023-08-01T04:09:14;15.90;99.90
39019;DHT22;24786;51.984;5.872;2023-08-01T04:11:40;16.00;99.90
39019;DHT22;24786;51.984;5.872;2023-08-01T04:14:05;15.90;99.90
39019;DHT22;24786;51.984;5.872;2023-08-01T04:16:31;15.90;99.90
39019;DHT22;24786;51.984;5.872;2023-08-01T04:18:56;15.90;99.90
39019;DHT22;24786;51.984;5.872;2023-08-01T04:21:22;16.00;99.90
39019;DHT22;24786;51.984;5.872;2023-08-01T04:23:47;16.00;99.90
39019;DHT22;24786;51.984;5.872;2023-08-01T04:26:13;16.00;99.90
39019;DHT22;24786;51.984;5.872;2023-08-01T04:28:38;15.90;99.90
39019;DHT22;24786;51.984;5.872;2023-08-01T04:31:04;16.00;99.90
39019;DHT22;24786;51.984;5.872;2023-08-01T04:33:29;16.00;99.90
39019;DHT22;24786;51.984;5.872;2023-08-01T04:35:54;16.00;99.90
39019;DHT22;24786;51.984;5.872;2023-08-01T04:38:20;16.00;99.90
39019;DHT22;24786;51.984;5.872;2023-08-01T04:40:45;16.00;99.90
39019;DHT22;24786;51.984;5.872;2023-08-01T04:43:11;16.00;99.90
39019;DHT22;24786;51.984;5.872;2023-08-01T04:45:37;16.00;99.90
39019;DHT22;24786;51.984;5.872;2023-08-01T04:48:02;16.00;99.90
39019;DHT22;24786;51.984;5.872;2023-08-01T04:50:28;16.00;99.90
39019;DHT22;24786;51.984;5.872;2023-08-01T04:52:53;15.90;99.90
39019;DHT22;24786;51.984;5.872;2023-08-01T04:55:19;15.90;99.90
39019;DHT22;24786;51.984;5.872;2023-08-01T04:57:44;15.90;99.90
39019;DHT22;24786;51.984;5.872;2023-08-01T05:00:10;16.00;99.90
39019;DHT22;24786;51.984;5.872;2023-08-01T05:02:36;15.90;99.90
39019;DHT22;24786;51.984;5.872;2023-08-01T05:05:01;15.90;99.90
39019;DHT22;24786;51.984;5.872;2023-08-01T05:07:27;16.00;99.90
39019;DHT22;24786;51.984;5.872;2023-08-01T05:09:52;16.00;99.90
39019;DHT22;24786;51.984;5.872;2023-08-01T05:12:18;16.00;99.90
39019;DHT22;24786;51.984;5.872;2023-08-01T05:14:43;16.00;99.90
39019;DHT22;24786;51.984;5.872;2023-08-01T05:17:09;16.00;99.90
39019;DHT22;24786;51.984;5.872;2023-08-01T05:19:34;16.00;99.90
39019;DHT22;24786;51.984;5.872;2023-08-01T05:22:00;16.10;99.90
39019;DHT22;24786;51.984;5.872;2023-08-01T05:24:26;16.00;99.90
39019;DHT22;24786;51.984;5.872;2023-08-01T05:26:51;16.10;99.90
39019;DHT22;24786;51.984;5.872;2023-08-01T05:29:16;16.10;99.90
39019;DHT22;24786;51.984;5.872;2023-08-01T05:31:42;16.10;99.90
39019;DHT22;24786;51.984;5.872;2023-08-01T05:34:07;16.20;99.90
39019;DHT22;24786;51.984;5.872;2023-08-01T05:36:33;16.20;99.90
39019;DHT22;24786;51.984;5.872;2023-08-01T05:38:58;16.20;99.90
39019;DHT22;24786;51.984;5.872;2023-08-01T05:41:24;16.20;99.90
39019;DHT22;24786;51.984;5.872;2023-08-01T05:43:49;16.30;99.90
39019;DHT22;24786;51.984;5.872;2023-08-01T05:46:15;16.40;99.90
39019;DHT22;24786;51.984;5.872;2023-08-01T05:48:40;16.40;99.90
39019;DHT22;24786;51.984;5.872;2023-08-01T05:51:06;16.40;99.90
39019;DHT22;24786;51.984;5.872;2023-08-01T05:53:31;16.40;99.90
39019;DHT22;24786;51.984;5.872;2023-08-01T05:55:57;16.40;99.90
39019;DHT22;24786;51.984;5.872;2023-08-01T05:58:22;16.40;99.90
39019;DHT22;24786;51.984;5.872;2023-08-01T06:00:48;16.50;99.90
39019;DHT22;24786;51.984;5.872;2023-08-01T06:03:14;16.50;99.90
39019;DHT22;24786;51.984;5.872;2023-08-01T06:05:39;16.60;99.90
39019;DHT22;24786;51.984;5.872;2023-08-01T06:08:06;16.60;99.90
39019;DHT22;24786;51.984;5.872;2023-08-01T06:10:31;16.60;99.90
39019;DHT22;24786;51.984;5.872;2023-08-01T06:12:57;16.60;99.90
39019;DHT22;24786;51.984;5.872;2023-08-01T06:15:22;16.60;99.90
39019;DHT22;24786;51.984;5.872;2023-08-01T06:17:48;16.60;99.90
39019;DHT22;24786;51.984;5.872;2023-08-01T06:20:13;16.60;99.90
39019;DHT22;24786;51.984;5.872;2023-08-01T06:22:39;16.60;99.90
39019;DHT22;24786;51.984;5.872;2023-08-01T06:25:05;16.60;99.90
39019;DHT22;24786;51.984;5.872;2023-08-01T06:27:30;16.60;99.90
39019;DHT22;24786;51.984;5.872;2023-08-01T06:29:56;16.60;99.90
39019;DHT22;24786;51.984;5.872;2023-08-01T06:32:21;16.60;99.90
39019;DHT22;24786;51.984;5.872;2023-08-01T06:34:47;16.60;99.90
39019;DHT22;24786;51.984;5.872;2023-08-01T06:37:12;16.60;99.90
39019;DHT22;24786;51.984;5.872;2023-08-01T06:39:38;16.60;99.90
39019;DHT22;24786;51.984;5.872;2023-08-01T06:42:03;16.70;99.90
39019;DHT22;24786;51.984;5.872;2023-08-01T06:44:29;16.70;99.90
39019;DHT22;24786;51.984;5.872;2023-08-01T06:46:54;16.80;99.90
39019;DHT22;24786;51.984;5.872;2023-08-01T06:49:20;16.80;99.90
39019;DHT22;24786;51.984;5.872;2023-08-01T06:51:45;16.80;99.90
39019;DHT22;24786;51.984;5.872;2023-08-01T06:54:13;16.90;99.90
39019;DHT22;24786;51.984;5.872;2023-08-01T06:56:38;16.90;99.90
39019;DHT22;24786;51.984;5.872;2023-08-01T06:59:04;17.00;99.90
39019;DHT22;24786;51.984;5.872;2023-08-01T07:01:29;17.00;99.90
39019;DHT22;24786;51.984;5.872;2023-08-01T07:03:55;17.00;99.90
39019;DHT22;24786;51.984;5.872;2023-08-01T07:06:22;17.10;99.90
39019;DHT22;24786;51.984;5.872;2023-08-01T07:08:48;17.10;99.90
39019;DHT22;24786;51.984;5.872;2023-08-01T07:11:13;17.10;99.90
39019;DHT22;24786;51.984;5.872;2023-08-01T07:13:39;17.10;99.90
39019;DHT22;24786;51.984;5.872;2023-08-01T07:16:04;17.10;99.90
39019;DHT22;24786;51.984;5.872;2023-08-01T07:18:30;17.10;99.90
39019;DHT22;24786;51.984;5.872;2023-08-01T07:21:02;17.20;99.90
39019;DHT22;24786;51.984;5.872;2023-08-01T07:23:28;17.20;99.90
39019;DHT22;24786;51.984;5.872;2023-08-01T07:25:54;17.30;99.90
39019;DHT22;24786;51.984;5.872;2023-08-01T07:28:19;17.40;99.90
39019;DHT22;24786;51.984;5.872;2023-08-01T07:30:44;17.40;99.90
39019;DHT22;24786;51.984;5.872;2023-08-01T07:33:10;17.50;99.90
39019;DHT22;24786;51.984;5.872;2023-08-01T07:35:35;17.60;99.90
39019;DHT22;24786;51.984;5.872;2023-08-01T07:38:01;17.70;99.90
39019;DHT22;24786;51.984;5.872;2023-08-01T07:40:26;17.70;99.90
39019;DHT22;24786;51.984;5.872;2023-08-01T07:42:52;17.80;99.90
39019;DHT22;24786;51.984;5.872;2023-08-01T07:45:17;18.00;99.90
39019;DHT22;24786;51.984;5.872;2023-08-01T07:47:44;18.00;99.90
39019;DHT22;24786;51.984;5.872;2023-08-01T07:50:10;18.10;99.90
39019;DHT22;24786;51.984;5.872;2023-08-01T07:52:36;18.10;99.90
39019;DHT22;24786;51.984;5.872;2023-08-01T07:55:01;18.20;99.90
39019;DHT22;24786;51.984;5.872;2023-08-01T07:57:27;18.30;99.90
39019;DHT22;24786;51.984;5.872;2023-08-01T07:59:52;18.30;99.90
39019;DHT22;24786;51.984;5.872;2023-08-01T08:02:18;18.40;99.90
39019;DHT22;24786;51.984;5.872;2023-08-01T08:04:43;18.40;99.90
39019;DHT22;24786;51.984;5.872;2023-08-01T08:07:09;18.30;99.90
39019;DHT22;24786;51.984;5.872;2023-08-01T08:09:34;18.40;99.90
39019;DHT22;24786;51.984;5.872;2023-08-01T08:11:59;18.40;99.90
39019;DHT22;24786;51.984;5.872;2023-08-01T08:14:25;18.30;99.90
39019;DHT22;24786;51.984;5.872;2023-08-01T08:16:51;18.20;99.90
39019;DHT22;24786;51.984;5.872;2023-08-01T08:19:16;18.10;99.90
39019;DHT22;24786;51.984;5.872;2023-08-01T08:21:42;17.90;99.90
39019;DHT22;24786;51.984;5.872;2023-08-01T08:24:08;17.70;99.90
39019;DHT22;24786;51.984;5.872;2023-08-01T08:26:33;17.60;99.90
39019;DHT22;24786;51.984;5.872;2023-08-01T08:29:05;17.40;99.90
39019;DHT22;24786;51.984;5.872;2023-08-01T08:31:31;17.30;99.90
39019;DHT22;24786;51.984;5.872;2023-08-01T08:33:56;17.10;99.90
39019;DHT22;24786;51.984;5.872;2023-08-01T08:36:22;17.20;99.90
39019;DHT22;24786;51.984;5.872;2023-08-01T08:38:47;17.30;99.90
39019;DHT22;24786;51.984;5.872;2023-08-01T08:41:13;17.50;99.90
39019;DHT22;24786;51.984;5.872;2023-08-01T08:43:41;17.60;99.90
39019;DHT22;24786;51.984;5.872;2023-08-01T08:46:08;17.60;99.90
39019;DHT22;24786;51.984;5.872;2023-08-01T08:48:33;17.70;99.90
39019;DHT22;24786;51.984;5.872;2023-08-01T08:50:59;17.90;99.90
39019;DHT22;24786;51.984;5.872;2023-08-01T08:53:25;18.10;99.90
39019;DHT22;24786;51.984;5.872;2023-08-01T08:55:51;18.20;99.90
39019;DHT22;24786;51.984;5.872;2023-08-01T08:58:16;18.20;99.90
39019;DHT22;24786;51.984;5.872;2023-08-01T09:00:43;18.20;99.90
39019;DHT22;24786;51.984;5.872;2023-08-01T09:03:08;18.30;99.90
39019;DHT22;24786;51.984;5.872;2023-08-01T09:05:40;18.30;99.90
39019;DHT22;24786;51.984;5.872;2023-08-01T09:08:13;18.40;99.90
39019;DHT22;24786;51.984;5.872;2023-08-01T09:10:40;18.50;99.90
39019;DHT22;24786;51.984;5.872;2023-08-01T09:13:07;18.60;99.90
39019;DHT22;24786;51.984;5.872;2023-08-01T09:15:32;18.70;99.90
39019;DHT22;24786;51.984;5.872;2023-08-01T09:17:58;18.80;99.90
39019;DHT22;24786;51.984;5.872;2023-08-01T09:20:26;18.70;99.90
39019;DHT22;24786;51.984;5.872;2023-08-01T09:22:52;18.80;99.90
39019;DHT22;24786;51.984;5.872;2023-08-01T09:25:17;18.90;99.90
39019;DHT22;24786;51.984;5.872;2023-08-01T09:27:43;19.00;99.90
39019;DHT22;24786;51.984;5.872;2023-08-01T09:30:09;19.20;99.90
39019;DHT22;24786;51.984;5.872;2023-08-01T09:32:36;19.20;99.90
39019;DHT22;24786;51.984;5.872;2023-08-01T09:35:02;19.20;99.90
39019;DHT22;24786;51.984;5.872;2023-08-01T09:37:38;19.20;99.90
39019;DHT22;24786;51.984;5.872;2023-08-01T09:40:04;19.20;99.90
39019;DHT22;24786;51.984;5.872;2023-08-01T09:42:37;19.20;99.90
39019;DHT22;24786;51.984;5.872;2023-08-01T09:45:05;19.20;99.90
39019;DHT22;24786;51.984;5.872;2023-08-01T09:47:40;19.30;99.90
39019;DHT22;24786;51.984;5.872;2023-08-01T09:50:06;19.20;99.90
39019;DHT22;24786;51.984;5.872;2023-08-01T09:52:32;19.20;99.90
39019;DHT22;24786;51.984;5.872;2023-08-01T09:54:58;19.20;99.90
39019;DHT22;24786;51.984;5.872;2023-08-01T09:57:23;19.20;99.90
39019;DHT22;24786;51.984;5.872;2023-08-01T09:59:53;19.20;99.90
39019;DHT22;24786;51.984;5.872;2023-08-01T10:02:19;19.20;99.90
39019;DHT22;24786;51.984;5.872;2023-08-01T10:04:47;19.40;99.90
39019;DHT22;24786;51.984;5.872;2023-08-01T10:07:12;19.40;99.90
39019;DHT22;24786;51.984;5.872;2023-08-01T10:09:38;19.50;99.90
39019;DHT22;24786;51.984;5.872;2023-08-01T10:12:05;19.30;99.90
39019;DHT22;24786;51.984;5.872;2023-08-01T10:14:34;19.40;99.90
39019;DHT22;24786;51.984;5.872;2023-08-01T10:17:01;19.50;99.90
39019;DHT22;24786;51.984;5.872;2023-08-01T10:19:27;19.70;99.90
39019;DHT22;24786;51.984;5.872;2023-08-01T10:21:53;19.90;99.90
39019;DHT22;24786;51.984;5.872;2023-08-01T10:24:18;20.00;99.90
39019;DHT22;24786;51.984;5.872;2023-08-01T10:26:45;20.10;99.90
39019;DHT22;24786;51.984;5.872;2023-08-01T10:29:11;20.20;99.90
39019;DHT22;24786;51.984;5.872;2023-08-01T10:31:36;20.30;99.90
39019;DHT22;24786;51.984;5.872;2023-08-01T10:34:05;20.40;99.90
39019;DHT22;24786;51.984;5.872;2023-08-01T10:36:31;20.50;99.90
39019;DHT22;24786;51.984;5.872;2023-08-01T10:38:58;20.50;99.90
39019;DHT22;24786;51.984;5.872;2023-08-01T10:44:03;20.50;99.90
39019;DHT22;24786;51.984;5.872;2023-08-01T10:46:29;20.50;99.90
39019;DHT22;24786;51.984;5.872;2023-08-01T10:48:54;20.50;99.90
39019;DHT22;24786;51.984;5.872;2023-08-01T10:51:20;20.60;99.90
39019;DHT22;24786;51.984;5.872;2023-08-01T10:53:45;20.60;99.90
39019;DHT22;24786;51.984;5.872;2023-08-01T10:56:18;20.60;99.90
39019;DHT22;24786;51.984;5.872;2023-08-01T10:58:43;20.50;99.90
39019;DHT22;24786;51.984;5.872;2023-08-01T11:01:09;20.50;99.90
39019;DHT22;24786;51.984;5.872;2023-08-01T11:03:35;20.40;99.90
39019;DHT22;24786;51.984;5.872;2023-08-01T11:06:01;20.40;99.90
39019;DHT22;24786;51.984;5.872;2023-08-01T11:08:38;20.60;99.90
39019;DHT22;24786;51.984;5.872;2023-08-01T11:11:04;20.50;99.90
39019;DHT22;24786;51.984;5.872;2023-08-01T11:13:31;20.50;99.90
39019;DHT22;24786;51.984;5.872;2023-08-01T11:16:00;20.60;99.90
39019;DHT22;24786;51.984;5.872;2023-08-01T11:18:26;20.60;99.90
39019;DHT22;24786;51.984;5.872;2023-08-01T11:20:51;20.80;99.90
39019;DHT22;24786;51.984;5.872;2023-08-01T11:23:17;20.90;99.90
39019;DHT22;24786;51.984;5.872;2023-08-01T11:25:43;21.10;99.90
39019;DHT22;24786;51.984;5.872;2023-08-01T11:28:11;21.20;99.90
39019;DHT22;24786;51.984;5.872;2023-08-01T11:30:38;21.20;99.90
39019;DHT22;24786;51.984;5.872;2023-08-01T11:35:59;21.30;99.90
39019;DHT22;24786;51.984;5.872;2023-08-01T11:38:26;21.30;99.90
39019;DHT22;24786;51.984;5.872;2023-08-01T11:40:51;21.40;99.90
39019;DHT22;24786;51.984;5.872;2023-08-01T11:43:17;21.40;99.90
39019;DHT22;24786;51.984;5.872;2023-08-01T11:45:49;21.20;99.90
39019;DHT22;24786;51.984;5.872;2023-08-01T11:48:15;21.20;99.90
39019;DHT22;24786;51.984;5.872;2023-08-01T11:50:41;21.30;99.90
39019;DHT22;24786;51.984;5.872;2023-08-01T11:53:16;21.40;99.90
39019;DHT22;24786;51.984;5.872;2023-08-01T11:55:42;21.40;99.90
39019;DHT22;24786;51.984;5.872;2023-08-01T11:58:08;21.30;99.90
39019;DHT22;24786;51.984;5.872;2023-08-01T12:00:33;21.20;99.90
39019;DHT22;24786;51.984;5.872;2023-08-01T12:03:05;20.90;99.90
39019;DHT22;24786;51.984;5.872;2023-08-01T12:05:31;20.60;99.90
39019;DHT22;24786;51.984;5.872;2023-08-01T12:08:07;20.60;99.90
39019;DHT22;24786;51.984;5.872;2023-08-01T12:10:40;20.80;99.90
39019;DHT22;24786;51.984;5.872;2023-08-01T12:13:06;20.80;99.90
39019;DHT22;24786;51.984;5.872;2023-08-01T12:15:31;20.70;99.90
39019;DHT22;24786;51.984;5.872;2023-08-01T12:17:56;20.50;99.90
39019;DHT22;24786;51.984;5.872;2023-08-01T12:20:22;20.50;99.90
39019;DHT22;24786;51.984;5.872;2023-08-01T12:22:47;20.40;99.90
39019;DHT22;24786;51.984;5.872;2023-08-01T12:25:13;20.20;99.90
39019;DHT22;24786;51.984;5.872;2023-08-01T12:27:38;20.10;99.90
39019;DHT22;24786;51.984;5.872;2023-08-01T12:30:04;20.00;99.90
39019;DHT22;24786;51.984;5.872;2023-08-01T12:32:30;19.80;99.90
39019;DHT22;24786;51.984;5.872;2023-08-01T12:34:55;19.80;99.90
39019;DHT22;24786;51.984;5.872;2023-08-01T12:37:21;19.70;99.90
39019;DHT22;24786;51.984;5.872;2023-08-01T12:39:46;19.70;99.90
39019;DHT22;24786;51.984;5.872;2023-08-01T12:42:12;19.70;99.90
39019;DHT22;24786;51.984;5.872;2023-08-01T12:44:37;19.90;99.90
39019;DHT22;24786;51.984;5.872;2023-08-01T12:47:03;20.00;99.90
39019;DHT22;24786;51.984;5.872;2023-08-01T12:49:28;20.00;99.90
39019;DHT22;24786;51.984;5.872;2023-08-01T12:51:54;20.00;99.90
39019;DHT22;24786;51.984;5.872;2023-08-01T12:54:19;20.10;99.90
39019;DHT22;24786;51.984;5.872;2023-08-01T12:56:45;20.20;99.90
39019;DHT22;24786;51.984;5.872;2023-08-01T12:59:11;20.20;99.90
39019;DHT22;24786;51.984;5.872;2023-08-01T13:01:36;20.20;99.90
39019;DHT22;24786;51.984;5.872;2023-08-01T13:04:02;20.20;99.90
39019;DHT22;24786;51.984;5.872;2023-08-01T13:06:27;20.20;99.90
39019;DHT22;24786;51.984;5.872;2023-08-01T13:08:53;20.20;99.90
39019;DHT22;24786;51.984;5.872;2023-08-01T13:11:18;20.40;99.90
39019;DHT22;24786;51.984;5.872;2023-08-01T13:13:44;20.40;99.90
39019;DHT22;24786;51.984;5.872;2023-08-01T13:16:10;20.40;99.90
39019;DHT22;24786;51.984;5.872;2023-08-01T13:18:35;20.40;99.90
39019;DHT22;24786;51.984;5.872;2023-08-01T13:21:02;20.70;99.90
39019;DHT22;24786;51.984;5.872;2023-08-01T13:23:28;21.00;99.90
39019;DHT22;24786;51.984;5.872;2023-08-01T13:25:54;21.20;99.90
39019;DHT22;24786;51.984;5.872;2023-08-01T13:28:19;21.40;99.90
39019;DHT22;24786;51.984;5.872;2023-08-01T13:30:45;21.70;99.90
39019;DHT22;24786;51.984;5.872;2023-08-01T13:33:10;21.90;99.90
39019;DHT22;24786;51.984;5.872;2023-08-01T13:35:36;22.20;99.90
39019;DHT22;24786;51.984;5.872;2023-08-01T13:38:01;22.20;99.90
39019;DHT22;24786;51.984;5.872;2023-08-01T13:40:28;22.20;99.90
39019;DHT22;24786;51.984;5.872;2023-08-01T13:42:54;21.80;99.90
39019;DHT22;24786;51.984;5.872;2023-08-01T13:45:19;21.50;99.90
39019;DHT22;24786;51.984;5.872;2023-08-01T13:47:45;21.50;99.90
39019;DHT22;24786;51.984;5.872;2023-08-01T13:50:10;21.50;99.90
39019;DHT22;24786;51.984;5.872;2023-08-01T13:52:38;21.40;99.90
39019;DHT22;24786;51.984;5.872;2023-08-01T13:55:04;21.20;99.90
39019;DHT22;24786;51.984;5.872;2023-08-01T13:57:31;21.00;99.90
39019;DHT22;24786;51.984;5.872;2023-08-01T13:59:57;20.70;99.90
39019;DHT22;24786;51.984;5.872;2023-08-01T14:02:22;20.50;99.90
39019;DHT22;24786;51.984;5.872;2023-08-01T14:04:50;20.40;99.90
39019;DHT22;24786;51.984;5.872;2023-08-01T14:07:16;20.40;99.90
39019;DHT22;24786;51.984;5.872;2023-08-01T14:09:41;20.40;99.90
39019;DHT22;24786;51.984;5.872;2023-08-01T14:12:07;20.40;99.90
39019;DHT22;24786;51.984;5.872;2023-08-01T14:14:32;20.80;99.90
39019;DHT22;24786;51.984;5.872;2023-08-01T14:16:58;21.10;99.90
39019;DHT22;24786;51.984;5.872;2023-08-01T14:19:23;21.40;99.90
39019;DHT22;24786;51.984;5.872;2023-08-01T14:21:55;21.50;99.90
39019;DHT22;24786;51.984;5.872;2023-08-01T14:24:20;21.60;99.90
39019;DHT22;24786;51.984;5.872;2023-08-01T14:26:46;21.70;99.90
39019;DHT22;24786;51.984;5.872;2023-08-01T14:29:11;21.50;99.90
39019;DHT22;24786;51.984;5.872;2023-08-01T14:31:37;21.50;99.90
39019;DHT22;24786;51.984;5.872;2023-08-01T14:34:02;21.40;99.90
39019;DHT22;24786;51.984;5.872;2023-08-01T14:36:28;21.50;99.90
39019;DHT22;24786;51.984;5.872;2023-08-01T14:38:53;21.70;99.90
39019;DHT22;24786;51.984;5.872;2023-08-01T14:41:20;21.90;99.90
39019;DHT22;24786;51.984;5.872;2023-08-01T14:43:45;22.00;99.90
39019;DHT22;24786;51.984;5.872;2023-08-01T14:46:11;21.90;99.90
39019;DHT22;24786;51.984;5.872;2023-08-01T14:48:36;21.80;99.90
39019;DHT22;24786;51.984;5.872;2023-08-01T14:51:04;21.80;99.90
39019;DHT22;24786;51.984;5.872;2023-08-01T14:53:30;21.90;99.90
39019;DHT22;24786;51.984;5.872;2023-08-01T14:55:56;21.80;99.90
39019;DHT22;24786;51.984;5.872;2023-08-01T14:58:22;21.50;99.90
39019;DHT22;24786;51.984;5.872;2023-08-01T15:00:48;21.30;99.90
39019;DHT22;24786;51.984;5.872;2023-08-01T15:03:13;21.00;99.90
39019;DHT22;24786;51.984;5.872;2023-08-01T15:05:39;20.80;99.90
39019;DHT22;24786;51.984;5.872;2023-08-01T15:08:05;20.60;99.90
39019;DHT22;24786;51.984;5.872;2023-08-01T15:10:31;20.50;99.90
39019;DHT22;24786;51.984;5.872;2023-08-01T15:12:56;20.40;99.90
39019;DHT22;24786;51.984;5.872;2023-08-01T15:15:22;20.30;99.90
39019;DHT22;24786;51.984;5.872;2023-08-01T15:17:47;20.20;99.90
39019;DHT22;24786;51.984;5.872;2023-08-01T15:20:12;20.20;99.90
39019;DHT22;24786;51.984;5.872;2023-08-01T15:22:38;20.10;99.90
39019;DHT22;24786;51.984;5.872;2023-08-01T15:25:03;19.90;99.90
39019;DHT22;24786;51.984;5.872;2023-08-01T15:27:29;20.10;99.90